Main page
METAR-TAF:

METAR-TAF

Airports :

Aigen im Ennstal, Austria

latitude: 47-32N, longitude: 014-08E, elevation: 638 m

METAR: missing

Time: 23:51 (22:51 UTC)

Forecast

The report was made 5 hours and 36 minutes ago, at 17:15 UTC
Forecast valid from 20 at 18 UTC to 21 at 03 UTC
Wind 3 kt from variable directions
Visibility 10 km or more
Clear sky
Temporary
from 20 at 19 UTC to 21 at 03 UTC
Visibility: 0700 m
Scattered clouds at a height of 1500 ft
patches of fog

TAF: LOXA 201715Z 2018/2103 VRB03KT 9999 SKC TEMPO 2019/2103 0700 BCFG SCT015

Weather observations and forecasts of more than 4000 airports (METAR and TAF reports).

The available stations are represented by yellow and red dots on the map.

Hover mouse over dot to see the name of the station.

Then click to see weather observations and forecasts.

To change the map : click on the green buttons with a black cross to zoom in, on the green button with a dash to zoom out, or on the green arrows for adjacent maps.


METAR-TAF: